Time;durP1;ratioP1;P1;durP2;ratioP2;P2;SDS_P1;SDS_P2;PMS_P1;PMS_P2;Temp;Humidity;BMP_temperature;BMP_pressure;BME280_temperature;BME280_humidity;BME280_pressure;Samples;Min_cycle;Max_cycle;Signal;HPM_P1;HPM_P2
2021/12/14 00:02:00;;;;;;;;;;;24.40;92.90;;;;;;5073829;28;20053;-67
2021/12/14 00:04:30;;;;;;;;;;;24.50;93.10;;;;;;5056044;28;19916;-67
2021/12/14 00:06:57;;;;;;;;;;;24.50;92.50;;;;;;5071262;28;19931;-67
2021/12/14 00:09:28;;;;;;;;;;;24.50;92.70;;;;;;5073897;28;19919;-67
2021/12/14 00:12:28;;;;;;;;;;;24.60;92.60;;;;;;5073942;28;19920;-67
2021/12/14 00:15:07;;;;;;;;;;;24.70;91.70;;;;;;5072491;28;20047;-67
2021/12/14 00:17:35;;;;;;;;;;;25.00;91.80;;;;;;5073870;28;19915;-67
2021/12/14 00:20:04;;;;;;;;;;;25.10;90.70;;;;;;5074073;28;19908;-67
2021/12/14 00:24:06;;;;;;;;;;;25.30;90.60;;;;;;5074521;28;19936;-67
2021/12/14 00:25:21;;;;;;;;;;;25.40;90.70;;;;;;5073859;28;19946;-67
2021/12/14 00:27:48;;;;;;;;;;;25.60;90.30;;;;;;5073887;28;19970;-67
2021/12/14 00:30:15;;;;;;;;;;;25.60;90.70;;;;;;5073294;28;19913;-66
2021/12/14 00:32:42;;;;;;;;;;;25.80;90.40;;;;;;5073435;28;20065;-66
2021/12/14 00:35:13;;;;;;;;;;;25.70;89.60;;;;;;5070550;28;19914;-67
2021/12/14 00:37:45;;;;;;;;;;;25.60;89.00;;;;;;5073079;28;19923;-68
2021/12/14 00:40:32;;;;;;;;;;;25.70;89.20;;;;;;5052845;28;19908;-67
2021/12/14 00:42:59;;;;;;;;;;;25.80;89.20;;;;;;5071792;28;19967;-67
2021/12/14 00:45:26;;;;;;;;;;;25.90;88.60;;;;;;5074207;28;19912;-67
2021/12/14 00:47:53;;;;;;;;;;;26.10;87.90;;;;;;5056127;28;19920;-67
2021/12/14 00:50:20;;;;;;;;;;;26.20;88.40;;;;;;5056326;28;19908;-67
2021/12/14 00:52:47;;;;;;;;;;;26.20;86.70;;;;;;5074019;28;19920;-67
2021/12/14 00:55:15;;;;;;;;;;;25.80;86.50;;;;;;5074290;28;19912;-67
2021/12/14 00:57:42;;;;;;;;;;;25.90;86.20;;;;;;5055513;28;19995;-67
2021/12/14 01:00:11;;;;;;;;;;;25.90;86.20;;;;;;5073069;28;19966;-68
2021/12/14 01:02:38;;;;;;;;;;;26.10;85.90;;;;;;5073279;28;20380;-68
2021/12/14 01:05:08;;;;;;;;;;;26.20;86.50;;;;;;5073079;28;20367;-68
2021/12/14 01:07:34;;;;;;;;;;;26.10;85.70;;;;;;5072755;28;19927;-68
2021/12/14 01:10:02;;;;;;;;;;;26.20;86.00;;;;;;5073142;28;19943;-69
2021/12/14 01:12:38;;;;;;;;;;;26.40;85.50;;;;;;5073658;28;19962;-67
2021/12/14 01:21:18;;;;;;;;;;;27.10;84.90;;;;;;5040985;28;20011;-67
2021/12/14 01:23:46;;;;;;;;;;;27.30;83.80;;;;;;5071622;28;19998;-68
2021/12/14 01:26:15;;;;;;;;;;;27.50;82.90;;;;;;5052298;28;19909;-68
2021/12/14 01:28:42;;;;;;;;;;;27.60;82.50;;;;;;5072118;28;19920;-68
2021/12/14 01:31:19;;;;;;;;;;;27.70;81.70;;;;;;5053464;28;19909;-68
2021/12/14 01:33:53;;;;;;;;;;;27.70;80.20;;;;;;5072282;28;19941;-67
2021/12/14 01:36:36;;;;;;;;;;;27.90;77.80;;;;;;5037920;28;19963;-68
2021/12/14 01:41:47;;;;;;;;;;;28.10;79.70;;;;;;5072633;28;20280;-68
2021/12/14 01:44:14;;;;;;;;;;;28.20;79.00;;;;;;5054228;28;20272;-68
2021/12/14 01:46:48;;;;;;;;;;;28.20;78.30;;;;;;5071999;28;19994;-68
2021/12/14 01:49:15;;;;;;;;;;;28.40;79.30;;;;;;5069626;28;19913;-68
2021/12/14 01:51:43;;;;;;;;;;;28.50;76.60;;;;;;5071950;28;19916;-68
2021/12/14 01:54:10;;;;;;;;;;;28.60;77.40;;;;;;5071904;28;19915;-68
2021/12/14 01:56:37;;;;;;;;;;;28.70;76.50;;;;;;5072304;28;19914;-69
2021/12/14 01:59:09;;;;;;;;;;;28.80;76.70;;;;;;5071802;28;19947;-78
2021/12/14 02:01:53;;;;;;;;;;;29.00;76.70;;;;;;5052126;28;20000;-75
2021/12/14 02:04:20;;;;;;;;;;;29.00;78.00;;;;;;5043881;28;19909;-74
2021/12/14 02:07:02;;;;;;;;;;;29.10;75.90;;;;;;5072725;28;20011;-73
2021/12/14 02:09:30;;;;;;;;;;;29.20;73.00;;;;;;5054865;28;19916;-72
2021/12/14 02:11:59;;;;;;;;;;;29.40;70.20;;;;;;5072933;28;19919;-72
2021/12/14 02:14:26;;;;;;;;;;;29.50;68.20;;;;;;5072128;28;19912;-72
2021/12/14 02:16:56;;;;;;;;;;;29.70;70.40;;;;;;5038201;28;19908;-71
2021/12/14 02:19:22;;;;;;;;;;;29.90;69.30;;;;;;5054602;28;19942;-76
2021/12/14 02:21:50;;;;;;;;;;;30.00;69.90;;;;;;5054681;28;20006;-74
2021/12/14 02:24:19;;;;;;;;;;;30.00;69.70;;;;;;5072865;28;19922;-73
2021/12/14 02:26:46;;;;;;;;;;;30.00;69.00;;;;;;5072828;28;19908;-73
2021/12/14 02:29:30;;;;;;;;;;;29.90;69.20;;;;;;5072742;28;19958;-73
2021/12/14 02:32:06;;;;;;;;;;;29.80;70.90;;;;;;5072539;28;20011;-75
2021/12/14 02:34:49;;;;;;;;;;;29.80;70.90;;;;;;5072642;28;19915;-72
2021/12/14 02:37:16;;;;;;;;;;;29.90;72.10;;;;;;5074919;28;20285;-72
2021/12/14 02:42:16;;;;;;;;;;;30.10;72.90;;;;;;5072713;28;19908;-72
2021/12/14 02:44:45;;;;;;;;;;;30.20;74.10;;;;;;5076475;28;19951;-75
2021/12/14 02:47:13;;;;;;;;;;;30.30;72.80;;;;;;5076258;28;19935;-72
2021/12/14 02:49:40;;;;;;;;;;;30.30;72.70;;;;;;5076424;28;20265;-75
2021/12/14 02:52:09;;;;;;;;;;;30.30;73.10;;;;;;5076143;28;20335;-72
2021/12/14 02:54:54;;;;;;;;;;;30.40;72.70;;;;;;5075296;28;19915;-73
2021/12/14 02:57:22;;;;;;;;;;;30.50;72.20;;;;;;5075922;28;19917;-73
2021/12/14 02:59:49;;;;;;;;;;;30.50;73.60;;;;;;5076386;28;19909;-75
2021/12/14 03:02:18;;;;;;;;;;;30.60;73.90;;;;;;5076534;28;19936;-73
2021/12/14 03:04:48;;;;;;;;;;;30.50;73.50;;;;;;5076242;28;20280;-75
2021/12/14 03:07:15;;;;;;;;;;;30.40;73.20;;;;;;5074771;28;20070;-75
2021/12/14 03:09:56;;;;;;;;;;;30.50;72.40;;;;;;5076490;28;19995;-75
2021/12/14 03:12:33;;;;;;;;;;;30.50;72.20;;;;;;5076413;28;19915;-74
2021/12/14 03:15:08;;;;;;;;;;;30.50;72.20;;;;;;5076167;28;19909;-75
2021/12/14 03:17:35;;;;;;;;;;;30.60;72.70;;;;;;5058522;28;19908;-71
2021/12/14 03:20:12;;;;;;;;;;;30.60;72.10;;;;;;5058100;28;19931;-75
2021/12/14 03:22:57;;;;;;;;;;;30.70;71.90;;;;;;5076210;28;19909;-75
2021/12/14 03:25:23;;;;;;;;;;;30.80;71.10;;;;;;5076071;28;19912;-74
2021/12/14 03:27:51;;;;;;;;;;;31.00;70.90;;;;;;5075901;28;19920;-74
2021/12/14 03:30:27;;;;;;;;;;;31.10;71.20;;;;;;5075924;28;19909;-72
2021/12/14 03:32:54;;;;;;;;;;;31.30;71.30;;;;;;5076032;28;19955;-73
2021/12/14 03:35:21;;;;;;;;;;;31.30;71.00;;;;;;5075904;28;20369;-72
2021/12/14 03:37:48;;;;;;;;;;;31.10;71.70;;;;;;5075648;28;20379;-74
2021/12/14 03:40:14;;;;;;;;;;;31.00;70.20;;;;;;5075868;28;19915;-75
2021/12/14 03:42:41;;;;;;;;;;;31.00;72.00;;;;;;5075804;28;19915;-74
2021/12/14 03:45:10;;;;;;;;;;;31.10;70.70;;;;;;5075097;28;19909;-74
2021/12/14 03:47:39;;;;;;;;;;;31.10;71.30;;;;;;5075711;28;19974;-75
2021/12/14 03:50:09;;;;;;;;;;;31.50;72.20;;;;;;5075720;28;19908;-74
2021/12/14 03:52:36;;;;;;;;;;;31.50;71.80;;;;;;5075608;28;19997;-75
2021/12/14 03:55:05;;;;;;;;;;;31.70;71.20;;;;;;5074507;28;20000;-75
2021/12/14 03:57:32;;;;;;;;;;;31.60;71.70;;;;;;5075359;28;19954;-75
2021/12/14 03:59:58;;;;;;;;;;;31.70;71.80;;;;;;5075426;28;19908;-74
2021/12/14 04:02:25;;;;;;;;;;;31.70;70.30;;;;;;5075458;28;20265;-75
2021/12/14 04:05:04;;;;;;;;;;;31.60;70.40;;;;;;5075233;28;20315;-75
2021/12/14 04:07:31;;;;;;;;;;;31.50;69.60;;;;;;5056942;28;19920;-74
2021/12/14 04:09:57;;;;;;;;;;;31.50;69.50;;;;;;5075189;28;20338;-75
2021/12/14 04:12:24;;;;;;;;;;;31.30;69.60;;;;;;5057313;28;19966;-74
2021/12/14 04:14:52;;;;;;;;;;;30.90;68.80;;;;;;5075070;28;19922;-74
2021/12/14 04:17:21;;;;;;;;;;;30.70;70.00;;;;;;5075198;28;19915;-75
2021/12/14 04:19:48;;;;;;;;;;;30.60;70.50;;;;;;5075112;28;20388;-75
2021/12/14 04:22:17;;;;;;;;;;;30.30;70.20;;;;;;5075580;28;20179;-74
2021/12/14 04:24:44;;;;;;;;;;;30.30;71.50;;;;;;5074942;28;19915;-74
2021/12/14 04:27:13;;;;;;;;;;;30.50;71.70;;;;;;5074830;28;19958;-73
2021/12/14 04:29:40;;;;;;;;;;;30.80;70.50;;;;;;5056953;28;19940;-73
2021/12/14 04:32:07;;;;;;;;;;;30.80;69.20;;;;;;5074565;28;19913;-77
2021/12/14 04:34:34;;;;;;;;;;;30.70;70.30;;;;;;5057155;28;20415;-75
2021/12/14 04:37:04;;;;;;;;;;;31.00;70.90;;;;;;5074665;28;19908;-72
2021/12/14 04:39:39;;;;;;;;;;;31.40;70.50;;;;;;5094471;28;19961;-73
2021/12/14 04:53:25;;;;;;;;;;;31.40;68.30;;;;;;5064202;28;19915;-74
2021/12/14 04:55:52;;;;;;;;;;;31.00;67.30;;;;;;5073989;28;19915;-72
2021/12/14 04:58:26;;;;;;;;;;;30.60;67.60;;;;;;5069346;28;20284;-70
2021/12/14 05:00:53;;;;;;;;;;;30.30;68.20;;;;;;5074164;28;20360;-73
2021/12/14 05:03:25;;;;;;;;;;;30.20;68.90;;;;;;5073958;28;19909;-72
2021/12/14 05:06:08;;;;;;;;;;;30.00;68.70;;;;;;5039217;28;19917;-70
2021/12/14 05:11:05;;;;;;;;;;;30.00;70.00;;;;;;5073755;28;19915;-70
2021/12/14 05:13:35;;;;;;;;;;;30.40;68.60;;;;;;5073755;28;19909;-69
2021/12/14 05:16:03;;;;;;;;;;;30.70;68.00;;;;;;5073673;28;19908;-71
2021/12/14 05:18:30;;;;;;;;;;;30.90;68.10;;;;;;5073406;28;19955;-69
2021/12/14 05:20:58;;;;;;;;;;;31.10;68.20;;;;;;5073606;28;20297;-68
2021/12/14 05:23:26;;;;;;;;;;;31.40;67.90;;;;;;5073652;28;19908;-69
2021/12/14 05:25:52;;;;;;;;;;;31.50;67.30;;;;;;5073189;28;20138;-69
2021/12/14 05:28:20;;;;;;;;;;;31.70;66.20;;;;;;5073344;28;19912;-69
2021/12/14 05:30:47;;;;;;;;;;;31.90;66.50;;;;;;5073500;28;19913;-69
2021/12/14 05:33:18;;;;;;;;;;;32.00;66.20;;;;;;5073436;28;19947;-69
2021/12/14 05:35:46;;;;;;;;;;;32.00;66.60;;;;;;5055339;28;19908;-69
2021/12/14 05:38:16;;;;;;;;;;;31.90;67.10;;;;;;5072626;28;19913;-70
2021/12/14 05:43:22;;;;;;;;;;;31.90;65.90;;;;;;5072819;28;19916;-71
2021/12/14 05:45:54;;;;;;;;;;;32.00;66.90;;;;;;5072395;28;19955;-71
2021/12/14 05:48:22;;;;;;;;;;;31.90;65.50;;;;;;5062560;28;19913;-71
2021/12/14 05:50:50;;;;;;;;;;;31.40;65.60;;;;;;5072524;28;19908;-71
2021/12/14 05:53:18;;;;;;;;;;;31.30;63.60;;;;;;5053788;28;19931;-71
2021/12/14 05:55:44;;;;;;;;;;;31.20;65.10;;;;;;5068937;28;19916;-71
2021/12/14 05:58:15;;;;;;;;;;;30.80;65.80;;;;;;5072569;28;19995;-71
2021/12/14 06:00:44;;;;;;;;;;;30.80;66.00;;;;;;5072720;28;19908;-71
2021/12/14 06:03:15;;;;;;;;;;;30.60;67.80;;;;;;5072420;28;19938;-71
2021/12/14 06:05:42;;;;;;;;;;;30.60;67.50;;;;;;5072758;28;19939;-73
2021/12/14 06:08:08;;;;;;;;;;;30.50;68.50;;;;;;5072883;28;19923;-70
2021/12/14 06:10:35;;;;;;;;;;;30.50;68.30;;;;;;5072446;28;19935;-72
2021/12/14 06:13:02;;;;;;;;;;;30.70;68.30;;;;;;5072453;28;20343;-73
2021/12/14 06:15:29;;;;;;;;;;;30.80;68.40;;;;;;5070735;28;19981;-72
2021/12/14 06:17:55;;;;;;;;;;;30.90;67.60;;;;;;5065739;28;19912;-72
2021/12/14 06:20:23;;;;;;;;;;;30.90;66.60;;;;;;5077149;28;19948;-72
2021/12/14 06:22:52;;;;;;;;;;;30.80;66.70;;;;;;5076333;28;19946;-72
2021/12/14 06:25:23;;;;;;;;;;;30.80;67.00;;;;;;5076338;28;20373;-72
2021/12/14 06:27:49;;;;;;;;;;;30.70;67.60;;;;;;5076785;28;19912;-73
2021/12/14 06:30:21;;;;;;;;;;;30.70;67.50;;;;;;5075584;28;20395;-72
2021/12/14 06:32:49;;;;;;;;;;;30.80;67.20;;;;;;5057157;28;19923;-72
2021/12/14 06:35:18;;;;;;;;;;;30.80;66.80;;;;;;5075423;28;19908;-73
2021/12/14 06:38:07;;;;;;;;;;;30.70;67.00;;;;;;5075151;28;20548;-76
2021/12/14 06:40:32;;;;;;;;;;;30.80;67.30;;;;;;5076287;28;20380;-77
2021/12/14 06:43:00;;;;;;;;;;;30.90;65.80;;;;;;5076707;28;19936;-71
2021/12/14 06:45:31;;;;;;;;;;;30.50;66.60;;;;;;5058835;28;20276;-71
2021/12/14 06:48:03;;;;;;;;;;;30.50;67.00;;;;;;5076425;28;20376;-73
2021/12/14 06:50:33;;;;;;;;;;;30.60;67.10;;;;;;5076461;28;19916;-75
2021/12/14 06:53:06;;;;;;;;;;;30.60;67.30;;;;;;5101075;22;19932;-74
2021/12/14 06:55:34;;;;;;;;;;;30.50;68.00;;;;;;5019714;28;19925;-72
2021/12/14 06:58:07;;;;;;;;;;;30.50;67.70;;;;;;5018420;28;19913;-71
2021/12/14 07:00:35;;;;;;;;;;;30.40;67.90;;;;;;5018780;28;19916;-71
2021/12/14 07:03:01;;;;;;;;;;;30.40;67.30;;;;;;5036227;28;19909;-72
2021/12/14 07:05:28;;;;;;;;;;;30.10;68.20;;;;;;5035041;28;20316;-71
2021/12/14 07:07:56;;;;;;;;;;;30.10;68.20;;;;;;5018537;28;19960;-72
2021/12/14 07:10:23;;;;;;;;;;;30.00;66.60;;;;;;5018684;28;19910;-72
2021/12/14 07:12:51;;;;;;;;;;;29.90;67.70;;;;;;5036074;28;19909;-74
2021/12/14 07:15:18;;;;;;;;;;;29.90;67.10;;;;;;5035721;28;19949;-71
2021/12/14 07:17:49;;;;;;;;;;;30.10;68.00;;;;;;5031436;28;19910;-72
2021/12/14 07:20:34;;;;;;;;;;;30.10;67.80;;;;;;4991941;28;19968;-72
2021/12/14 07:23:05;;;;;;;;;;;30.00;67.90;;;;;;5016240;28;19909;-72
2021/12/14 07:25:33;;;;;;;;;;;29.90;68.00;;;;;;5011258;28;19934;-73
2021/12/14 07:28:00;;;;;;;;;;;29.90;68.00;;;;;;5051013;28;20380;-73
2021/12/14 07:30:27;;;;;;;;;;;29.70;67.70;;;;;;5016684;28;19916;-73
2021/12/14 07:32:54;;;;;;;;;;;29.50;67.20;;;;;;5035713;28;19936;-74
2021/12/14 07:35:27;;;;;;;;;;;29.30;67.90;;;;;;5035574;28;19928;-72
2021/12/14 07:37:55;;;;;;;;;;;29.30;68.20;;;;;;5036317;28;19917;-72
2021/12/14 07:40:23;;;;;;;;;;;29.20;68.30;;;;;;5018119;28;19909;-72
2021/12/14 07:42:55;;;;;;;;;;;29.00;67.80;;;;;;5001306;28;19945;-73
2021/12/14 07:45:25;;;;;;;;;;;28.90;69.00;;;;;;5034260;28;19913;-72
2021/12/14 07:47:53;;;;;;;;;;;28.80;69.50;;;;;;5035362;28;20376;-72
2021/12/14 07:50:20;;;;;;;;;;;28.70;69.70;;;;;;5035737;28;19915;-72
2021/12/14 07:52:47;;;;;;;;;;;28.50;69.70;;;;;;5017523;28;19909;-71
2021/12/14 07:55:17;;;;;;;;;;;28.30;69.80;;;;;;5034736;28;20368;-71
2021/12/14 07:57:44;;;;;;;;;;;28.00;69.80;;;;;;5055031;28;19909;-73
2021/12/14 08:00:35;;;;;;;;;;;27.60;70.50;;;;;;5037405;28;20361;-72
2021/12/14 08:03:02;;;;;;;;;;;27.40;71.60;;;;;;5055169;28;19915;-74
2021/12/14 08:05:28;;;;;;;;;;;26.90;72.10;;;;;;5037132;28;20012;-73
2021/12/14 08:07:57;;;;;;;;;;;26.70;73.10;;;;;;5053663;28;20391;-72
2021/12/14 08:10:28;;;;;;;;;;;26.50;73.00;;;;;;5054656;28;20000;-72
2021/12/14 08:12:59;;;;;;;;;;;26.40;73.60;;;;;;5020406;28;20411;-73
2021/12/14 08:15:46;;;;;;;;;;;26.20;73.60;;;;;;5054358;28;19916;-73
2021/12/14 08:18:17;;;;;;;;;;;26.20;74.60;;;;;;5054750;28;19909;-71
2021/12/14 08:20:49;;;;;;;;;;;26.00;74.80;;;;;;5036123;28;19912;-71
2021/12/14 08:23:21;;;;;;;;;;;25.90;75.00;;;;;;5054898;28;20385;-77
2021/12/14 08:25:48;;;;;;;;;;;25.80;75.30;;;;;;5054422;28;20389;-73
2021/12/14 08:28:18;;;;;;;;;;;25.60;75.50;;;;;;5042419;28;20387;-72
2021/12/14 08:30:52;;;;;;;;;;;25.40;76.00;;;;;;5037218;28;19916;-71
2021/12/14 08:33:22;;;;;;;;;;;25.30;76.30;;;;;;5036177;28;19936;-73
2021/12/14 08:35:49;;;;;;;;;;;25.20;76.90;;;;;;5054094;28;20032;-70
2021/12/14 08:38:18;;;;;;;;;;;24.90;76.80;;;;;;5054354;28;19909;-73
2021/12/14 08:40:47;;;;;;;;;;;24.70;77.10;;;;;;5054083;28;20122;-72
2021/12/14 08:43:22;;;;;;;;;;;24.60;77.80;;;;;;5037180;28;19909;-72
2021/12/14 08:45:52;;;;;;;;;;;24.50;78.10;;;;;;5020652;28;19916;-71
2021/12/14 08:48:23;;;;;;;;;;;24.40;78.40;;;;;;5054168;28;19913;-72
2021/12/14 08:50:55;;;;;;;;;;;24.20;79.10;;;;;;5054252;28;19912;-72
2021/12/14 08:53:23;;;;;;;;;;;24.10;79.60;;;;;;5053955;28;19909;-72
2021/12/14 08:55:50;;;;;;;;;;;23.90;80.20;;;;;;5036100;28;20011;-72
2021/12/14 08:58:18;;;;;;;;;;;23.90;80.80;;;;;;5053861;28;19908;-72
2021/12/14 09:00:46;;;;;;;;;;;23.80;80.70;;;;;;5036296;28;20324;-70
2021/12/14 09:03:14;;;;;;;;;;;23.70;80.70;;;;;;5036243;28;19935;-72
2021/12/14 09:05:44;;;;;;;;;;;23.50;81.10;;;;;;5053858;28;20269;-72
2021/12/14 09:08:11;;;;;;;;;;;23.40;81.40;;;;;;5053731;28;19924;-72
2021/12/14 09:10:38;;;;;;;;;;;23.30;81.80;;;;;;5036177;28;19936;-72
2021/12/14 09:13:07;;;;;;;;;;;23.30;82.20;;;;;;5035839;28;19955;-72
2021/12/14 09:15:35;;;;;;;;;;;23.20;82.70;;;;;;5053712;28;19963;-72
2021/12/14 09:18:02;;;;;;;;;;;23.20;83.30;;;;;;5053181;28;19909;-72
2021/12/14 09:20:31;;;;;;;;;;;23.10;83.60;;;;;;5053446;28;19909;-73
2021/12/14 09:23:17;;;;;;;;;;;23.00;83.80;;;;;;5053521;28;19915;-73
2021/12/14 09:25:44;;;;;;;;;;;23.00;84.20;;;;;;5052816;28;19943;-74
2021/12/14 09:28:10;;;;;;;;;;;22.90;84.40;;;;;;5053038;28;19913;-73
2021/12/14 09:30:39;;;;;;;;;;;22.80;84.70;;;;;;5053510;28;19908;-73
2021/12/14 09:33:06;;;;;;;;;;;22.80;85.00;;;;;;5051985;28;19913;-74
2021/12/14 09:35:35;;;;;;;;;;;22.70;85.40;;;;;;5063518;28;20347;-73
2021/12/14 09:38:02;;;;;;;;;;;22.70;85.80;;;;;;5073176;28;20423;-73
2021/12/14 09:40:34;;;;;;;;;;;22.70;86.50;;;;;;5054642;28;19999;-75
2021/12/14 09:43:03;;;;;;;;;;;22.60;86.80;;;;;;5035520;28;19952;-73
2021/12/14 09:45:42;;;;;;;;;;;22.60;86.90;;;;;;5053184;28;19956;-73
2021/12/14 09:48:09;;;;;;;;;;;22.60;87.30;;;;;;5034297;28;19975;-75
2021/12/14 09:50:36;;;;;;;;;;;22.50;87.80;;;;;;5037180;28;20317;-73
2021/12/14 09:53:04;;;;;;;;;;;22.40;88.30;;;;;;5052432;28;19959;-74
2021/12/14 09:55:32;;;;;;;;;;;22.40;88.90;;;;;;5033033;28;19925;-73
2021/12/14 09:58:03;;;;;;;;;;;22.40;89.60;;;;;;5035117;28;19916;-75
2021/12/14 10:00:37;;;;;;;;;;;22.30;90.10;;;;;;5033110;28;19920;-75
2021/12/14 10:03:04;;;;;;;;;;;22.30;90.10;;;;;;5033113;28;19909;-76
2021/12/14 10:05:36;;;;;;;;;;;22.20;90.30;;;;;;5033135;28;19916;-76
2021/12/14 10:08:13;;;;;;;;;;;22.10;90.70;;;;;;5033044;28;19913;-76
2021/12/14 10:10:41;;;;;;;;;;;22.10;90.80;;;;;;5033169;28;19921;-76
2021/12/14 10:13:08;;;;;;;;;;;22.00;90.90;;;;;;5033191;28;19909;-76
2021/12/14 10:15:35;;;;;;;;;;;22.00;91.30;;;;;;5015598;28;19909;-76
2021/12/14 10:18:03;;;;;;;;;;;21.90;91.20;;;;;;5033594;28;19913;-76
2021/12/14 10:20:36;;;;;;;;;;;21.90;91.40;;;;;;5033007;28;19913;-77
2021/12/14 10:23:03;;;;;;;;;;;21.90;91.60;;;;;;5032894;28;20395;-76
2021/12/14 10:25:30;;;;;;;;;;;21.80;91.70;;;;;;5032862;28;20400;-75
2021/12/14 10:27:57;;;;;;;;;;;21.70;91.90;;;;;;5039961;28;20365;-76
2021/12/14 10:30:28;;;;;;;;;;;21.70;92.10;;;;;;5052915;28;19928;-75
2021/12/14 10:32:56;;;;;;;;;;;21.60;92.20;;;;;;5053056;28;19963;-77
2021/12/14 10:35:25;;;;;;;;;;;21.60;92.40;;;;;;5052641;28;20423;-72
2021/12/14 10:43:18;;;;;;;;;;;21.50;93.10;;;;;;5053239;28;19916;-75
2021/12/14 10:45:57;;;;;;;;;;;21.50;93.50;;;;;;5051763;28;19919;-74
2021/12/14 10:48:30;;;;;;;;;;;21.40;93.70;;;;;;5052638;28;19917;-76
2021/12/14 10:50:57;;;;;;;;;;;21.40;94.00;;;;;;5052761;28;20011;-74
2021/12/14 10:53:25;;;;;;;;;;;21.30;94.30;;;;;;5052646;28;19920;-74
2021/12/14 10:55:53;;;;;;;;;;;21.30;94.60;;;;;;5034894;28;19972;-77
2021/12/14 10:58:20;;;;;;;;;;;21.20;94.90;;;;;;5052470;28;19959;-77
2021/12/14 11:00:49;;;;;;;;;;;21.20;95.00;;;;;;5052685;28;20331;-74
2021/12/14 11:03:21;;;;;;;;;;;21.10;95.40;;;;;;5052900;28;19996;-71
2021/12/14 11:05:51;;;;;;;;;;;21.10;95.60;;;;;;5056504;28;19909;-81
2021/12/14 11:08:34;;;;;;;;;;;21.10;95.90;;;;;;5056316;28;19913;-77
2021/12/14 11:11:02;;;;;;;;;;;21.00;96.00;;;;;;5056205;28;20004;-77
2021/12/14 11:13:35;;;;;;;;;;;21.00;96.30;;;;;;5056285;28;19909;-79
2021/12/14 11:16:02;;;;;;;;;;;20.90;96.30;;;;;;5037920;28;19909;-79
2021/12/14 11:18:29;;;;;;;;;;;20.90;96.50;;;;;;5056127;28;20369;-79
2021/12/14 11:20:57;;;;;;;;;;;20.90;96.80;;;;;;5056169;28;19997;-79
2021/12/14 11:23:26;;;;;;;;;;;20.90;97.10;;;;;;5056091;28;19912;-79
2021/12/14 11:25:53;;;;;;;;;;;20.80;97.40;;;;;;5056180;28;19909;-79
2021/12/14 11:28:24;;;;;;;;;;;20.80;97.50;;;;;;5056081;28;20075;-78
2021/12/14 11:30:56;;;;;;;;;;;20.80;97.70;;;;;;5056012;28;19916;-76
2021/12/14 11:33:28;;;;;;;;;;;20.70;97.90;;;;;;5038432;28;19909;-77
2021/12/14 11:36:04;;;;;;;;;;;20.70;98.00;;;;;;5055887;28;19916;-78
2021/12/14 11:38:33;;;;;;;;;;;20.60;98.10;;;;;;5021421;28;20364;-77
2021/12/14 11:41:03;;;;;;;;;;;20.60;98.40;;;;;;5055791;28;20007;-76
2021/12/14 11:43:30;;;;;;;;;;;20.60;98.40;;;;;;5038068;28;19913;-77
2021/12/14 11:45:58;;;;;;;;;;;20.50;98.60;;;;;;5055957;28;19944;-77
2021/12/14 11:48:35;;;;;;;;;;;20.50;98.90;;;;;;5055573;28;19983;-77
2021/12/14 11:51:03;;;;;;;;;;;20.50;99.10;;;;;;5055189;28;19917;-77
2021/12/14 11:53:30;;;;;;;;;;;20.40;99.10;;;;;;5037526;28;19999;-77
2021/12/14 11:56:07;;;;;;;;;;;20.40;99.10;;;;;;5055507;28;19980;-76
2021/12/14 11:58:37;;;;;;;;;;;20.30;99.20;;;;;;5036311;28;19963;-75
2021/12/14 12:01:12;;;;;;;;;;;20.30;99.40;;;;;;5055369;28;19932;-75
2021/12/14 12:03:55;;;;;;;;;;;20.30;99.50;;;;;;5037361;28;19956;-74
2021/12/14 12:09:28;;;;;;;;;;;20.20;99.60;;;;;;5055490;28;20338;-75
2021/12/14 12:09:34;;;;;;;;;;;20.20;99.70;;;;;;5044198;28;20292;-77
2021/12/14 12:12:06;;;;;;;;;;;20.10;99.70;;;;;;5054565;28;19912;-72
2021/12/14 12:14:33;;;;;;;;;;;20.10;99.90;;;;;;5054867;28;19915;-76
2021/12/14 12:17:20;;;;;;;;;;;20.10;99.90;;;;;;5053986;28;20265;-76
2021/12/14 12:19:59;;;;;;;;;;;20.00;99.90;;;;;;5025076;28;19912;-76
2021/12/14 12:22:29;;;;;;;;;;;20.00;99.90;;;;;;5035111;28;19915;-77
2021/12/14 12:24:57;;;;;;;;;;;20.00;99.90;;;;;;5052879;28;19909;-76
2021/12/14 12:27:34;;;;;;;;;;;20.00;99.90;;;;;;5053599;28;20364;-77
2021/12/14 12:30:15;;;;;;;;;;;20.00;99.90;;;;;;5036486;28;19999;-74
2021/12/14 12:32:42;;;;;;;;;;;19.90;99.90;;;;;;5054557;28;19909;-76
2021/12/14 12:35:24;;;;;;;;;;;19.90;99.90;;;;;;5054595;28;19999;-76
2021/12/14 12:37:51;;;;;;;;;;;19.90;99.90;;;;;;5054335;28;19923;-75
2021/12/14 12:40:18;;;;;;;;;;;19.90;99.90;;;;;;5054459;28;19915;-76
2021/12/14 12:42:45;;;;;;;;;;;19.80;99.90;;;;;;5054417;28;19912;-76
2021/12/14 12:45:40;;;;;;;;;;;19.80;99.90;;;;;;5054391;28;20375;-74
2021/12/14 12:48:07;;;;;;;;;;;19.80;99.90;;;;;;5052299;28;20047;-75
2021/12/14 12:50:34;;;;;;;;;;;19.70;99.90;;;;;;5054281;28;19963;-75
2021/12/14 12:53:01;;;;;;;;;;;19.70;99.90;;;;;;5054164;28;19916;-74
2021/12/14 12:55:35;;;;;;;;;;;19.70;99.90;;;;;;5053404;28;20288;-74
2021/12/14 12:58:12;;;;;;;;;;;19.70;99.90;;;;;;5033979;28;20284;-74
2021/12/14 13:00:43;;;;;;;;;;;19.60;99.90;;;;;;5020653;28;20361;-75
2021/12/14 13:03:12;;;;;;;;;;;19.60;99.90;;;;;;5054023;28;19912;-76
2021/12/14 13:05:46;;;;;;;;;;;19.60;99.90;;;;;;5053746;28;20706;-76
2021/12/14 13:08:15;;;;;;;;;;;19.50;99.90;;;;;;5053773;28;19912;-73
2021/12/14 13:10:45;;;;;;;;;;;19.50;99.90;;;;;;5052598;28;19909;-74
2021/12/14 13:13:13;;;;;;;;;;;19.40;99.90;;;;;;5053931;28;19916;-74
2021/12/14 13:15:47;;;;;;;;;;;19.40;99.90;;;;;;5053799;28;19913;-74
2021/12/14 13:18:17;;;;;;;;;;;19.40;99.90;;;;;;5052434;28;19963;-75
2021/12/14 13:20:44;;;;;;;;;;;19.30;99.90;;;;;;5053673;28;19913;-75
2021/12/14 13:23:14;;;;;;;;;;;19.30;99.90;;;;;;5053557;28;19909;-75
2021/12/14 13:25:43;;;;;;;;;;;19.20;99.90;;;;;;5053624;28;19956;-75
2021/12/14 13:28:10;;;;;;;;;;;19.20;99.90;;;;;;5053490;28;20419;-75
2021/12/14 13:30:37;;;;;;;;;;;19.20;99.90;;;;;;5053512;28;20368;-75
2021/12/14 13:33:04;;;;;;;;;;;19.20;99.90;;;;;;5053538;28;20270;-75
2021/12/14 13:35:35;;;;;;;;;;;19.20;99.90;;;;;;5053463;28;19909;-75
2021/12/14 13:38:03;;;;;;;;;;;19.20;99.90;;;;;;5053333;28;19912;-75
2021/12/14 13:40:40;;;;;;;;;;;19.10;99.90;;;;;;5053429;28;19919;-75
2021/12/14 13:43:20;;;;;;;;;;;19.10;99.90;;;;;;5053285;28;20357;-75
2021/12/14 13:45:48;;;;;;;;;;;19.00;99.90;;;;;;5053300;28;19909;-75
2021/12/14 13:48:16;;;;;;;;;;;19.00;99.90;;;;;;5035468;28;19920;-75
2021/12/14 13:50:45;;;;;;;;;;;19.00;99.90;;;;;;5053242;28;19909;-75
2021/12/14 13:53:12;;;;;;;;;;;19.00;99.90;;;;;;5053036;28;20300;-74
2021/12/14 13:55:39;;;;;;;;;;;19.00;99.90;;;;;;5035462;28;19920;-75
2021/12/14 13:58:16;;;;;;;;;;;18.90;99.90;;;;;;5053005;28;19951;-75
2021/12/14 14:00:53;;;;;;;;;;;18.90;99.90;;;;;;5053120;28;20000;-75
2021/12/14 14:03:23;;;;;;;;;;;18.90;99.90;;;;;;5035817;28;19913;-74
2021/12/14 14:05:51;;;;;;;;;;;18.80;99.90;;;;;;5053016;28;20008;-74
2021/12/14 14:08:19;;;;;;;;;;;18.80;99.90;;;;;;5052891;28;19913;-75
2021/12/14 14:10:47;;;;;;;;;;;18.80;99.90;;;;;;5052913;28;19947;-75
2021/12/14 14:13:24;;;;;;;;;;;18.70;99.90;;;;;;5052954;28;20396;-75
2021/12/14 14:15:52;;;;;;;;;;;18.70;99.90;;;;;;5052266;28;19932;-75
2021/12/14 14:18:22;;;;;;;;;;;18.70;99.90;;;;;;5034428;28;19916;-74
2021/12/14 14:20:50;;;;;;;;;;;18.70;99.90;;;;;;5035126;28;19909;-75
2021/12/14 14:23:24;;;;;;;;;;;18.60;99.90;;;;;;5052913;28;20272;-75
2021/12/14 14:26:01;;;;;;;;;;;18.60;99.90;;;;;;5052894;28;19909;-74
2021/12/14 14:28:30;;;;;;;;;;;18.60;99.90;;;;;;5052803;28;19912;-74
2021/12/14 14:30:57;;;;;;;;;;;18.50;99.90;;;;;;5052828;28;19909;-74
2021/12/14 14:33:31;;;;;;;;;;;18.50;99.90;;;;;;5035136;28;19915;-74
2021/12/14 14:35:58;;;;;;;;;;;18.50;99.90;;;;;;5053067;28;19909;-75
2021/12/14 14:38:33;;;;;;;;;;;18.50;99.90;;;;;;5053222;28;19908;-76
2021/12/14 14:41:00;;;;;;;;;;;18.40;99.90;;;;;;5056750;28;19913;-76
2021/12/14 14:43:44;;;;;;;;;;;18.50;99.90;;;;;;5056679;28;19927;-75
2021/12/14 14:46:11;;;;;;;;;;;18.40;99.90;;;;;;5056581;28;19916;-74
2021/12/14 14:48:38;;;;;;;;;;;18.40;99.90;;;;;;5056491;28;19913;-74
2021/12/14 14:51:05;;;;;;;;;;;18.40;99.90;;;;;;5038590;28;19913;-74
2021/12/14 14:53:32;;;;;;;;;;;18.30;99.90;;;;;;5056314;28;20372;-73
2021/12/14 14:55:59;;;;;;;;;;;18.30;99.90;;;;;;5056458;28;19923;-74
2021/12/14 14:58:31;;;;;;;;;;;18.30;99.90;;;;;;5056274;28;19963;-75
2021/12/14 15:01:07;;;;;;;;;;;18.30;99.90;;;;;;5056406;28;19909;-74
2021/12/14 15:03:39;;;;;;;;;;;18.30;99.90;;;;;;5056433;28;20433;-74
2021/12/14 15:06:25;;;;;;;;;;;18.30;99.90;;;;;;5056295;28;19909;-74
2021/12/14 15:08:57;;;;;;;;;;;18.20;99.90;;;;;;5056092;28;19913;-74